createdAt,value
2018-09-27T00:01:05.124Z,102550.66
2018-09-27T00:03:33.498Z,102554.72
2018-09-27T00:06:01.821Z,102555.05
2018-09-27T00:08:30.043Z,102549.03
2018-09-27T00:10:58.300Z,102541.25
2018-09-27T00:13:26.502Z,102540.12
2018-09-27T00:15:54.782Z,102547.84
2018-09-27T00:18:23.025Z,102551.05
2018-09-27T00:20:51.296Z,102552.52
2018-09-27T00:23:19.501Z,102546.70
2018-09-27T00:25:47.729Z,102549.63
2018-09-27T00:28:15.959Z,102548.48
2018-09-27T00:30:44.207Z,102547.75
2018-09-27T00:33:12.433Z,102546.62
2018-09-27T00:35:40.670Z,102549.61
2018-09-27T00:38:08.916Z,102541.81
2018-09-27T00:40:37.210Z,102542.05
2018-09-27T00:43:05.513Z,102539.38
2018-09-27T00:45:33.791Z,102536.72
2018-09-27T00:48:02.019Z,102534.98
2018-09-27T00:50:30.338Z,102528.20
2018-09-27T00:52:58.575Z,102528.52
2018-09-27T00:55:26.829Z,102531.08
2018-09-27T00:57:55.066Z,102530.38
2018-09-27T01:00:23.309Z,102524.38
2018-09-27T01:02:51.584Z,102513.77
2018-09-27T01:05:19.805Z,102515.22
2018-09-27T01:07:48.026Z,102514.39
2018-09-27T01:10:16.254Z,102519.58
2018-09-27T01:12:44.561Z,102521.70
2018-09-27T01:15:12.843Z,102508.64
2018-09-27T01:17:41.116Z,102509.84
2018-09-27T01:20:09.369Z,102502.14
2018-09-27T01:22:37.602Z,102492.70
2018-09-27T01:25:05.918Z,102495.56
2018-09-27T01:27:34.399Z,102498.89
2018-09-27T01:30:02.725Z,102497.34
2018-09-27T01:32:30.930Z,102499.09
2018-09-27T01:34:59.179Z,102497.98
2018-09-27T01:37:27.422Z,102499.09
2018-09-27T01:39:55.673Z,102493.80
2018-09-27T01:42:23.890Z,102490.20
2018-09-27T01:44:52.101Z,102493.70
2018-09-27T01:47:20.359Z,102484.52
2018-09-27T01:49:48.605Z,102485.01
2018-09-27T01:52:16.834Z,102485.31
2018-09-27T01:54:45.053Z,102486.24
2018-09-27T01:57:13.278Z,102479.61
2018-09-27T01:59:41.498Z,102485.01
2018-09-27T02:02:09.773Z,102476.56
2018-09-27T02:04:38.014Z,102476.07
2018-09-27T02:07:06.257Z,102474.45
2018-09-27T02:09:34.497Z,102474.25
2018-09-27T02:12:02.750Z,102478.94
2018-09-27T02:14:30.986Z,102475.19
2018-09-27T02:16:59.193Z,102476.31
2018-09-27T02:19:27.410Z,102473.32
2018-09-27T02:21:55.622Z,102468.38
2018-09-27T02:24:23.855Z,102466.57
2018-09-27T02:26:52.152Z,102468.95
2018-09-27T02:29:20.467Z,102476.98
2018-09-27T02:31:48.690Z,102474.57
2018-09-27T02:34:16.918Z,102472.40
2018-09-27T02:36:45.164Z,102478.05
2018-09-27T02:39:13.402Z,102469.39
2018-09-27T02:41:41.655Z,102466.13
2018-09-27T02:44:10.037Z,102462.16
2018-09-27T02:46:38.255Z,102465.13
2018-09-27T02:49:06.527Z,102456.77
2018-09-27T02:51:34.745Z,102459.48
2018-09-27T02:54:02.983Z,102458.83
2018-09-27T02:56:31.218Z,102457.59
2018-09-27T02:58:59.442Z,102449.47
2018-09-27T03:01:27.678Z,102449.39
2018-09-27T03:03:55.903Z,102447.63
2018-09-27T03:06:24.118Z,102454.09
2018-09-27T03:08:52.346Z,102450.83
2018-09-27T03:11:20.595Z,102448.64
2018-09-27T03:13:48.924Z,102442.23
2018-09-27T03:16:17.050Z,102441.30
2018-09-27T03:18:45.278Z,102435.27
2018-09-27T03:21:13.494Z,102442.28
2018-09-27T03:23:41.740Z,102438.19
2018-09-27T03:26:09.958Z,102431.35
2018-09-27T03:28:38.178Z,102440.42
2018-09-27T03:31:06.675Z,102435.58
2018-09-27T03:33:34.873Z,102435.02
2018-09-27T03:36:03.107Z,102428.31
2018-09-27T03:38:31.357Z,102433.50
2018-09-27T03:40:59.553Z,102428.77
2018-09-27T03:43:27.811Z,102431.98
2018-09-27T03:45:56.026Z,102427.97
2018-09-27T03:48:24.229Z,102427.50
2018-09-27T03:50:52.554Z,102421.65
2018-09-27T03:53:20.791Z,102423.03
2018-09-27T03:55:49.023Z,102415.66
2018-09-27T03:58:17.271Z,102415.17
2018-09-27T04:00:45.498Z,102416.78
2018-09-27T04:03:13.770Z,102415.61
2018-09-27T04:05:41.956Z,102414.59
2018-09-27T04:08:10.174Z,102408.55
2018-09-27T04:10:38.416Z,102406.19
2018-09-27T04:13:06.673Z,102408.91
2018-09-27T04:15:34.889Z,102408.02
2018-09-27T04:18:03.115Z,102408.02
2018-09-27T04:20:35.038Z,102402.97
2018-09-27T04:23:03.279Z,102409.73
2018-09-27T04:25:31.513Z,102411.16
2018-09-27T04:27:59.727Z,102401.98
2018-09-27T04:30:27.954Z,102404.67
2018-09-27T04:32:56.182Z,102407.05
2018-09-27T04:35:24.393Z,102402.17
2018-09-27T04:37:52.607Z,102399.05
2018-09-27T04:40:20.846Z,102395.09
2018-09-27T04:42:49.074Z,102397.20
2018-09-27T04:45:17.306Z,102389.03
2018-09-27T04:47:45.547Z,102393.11
2018-09-27T04:50:13.773Z,102394.36
2018-09-27T04:52:42.026Z,102393.02
2018-09-27T04:55:10.250Z,102391.34
2018-09-27T04:57:38.468Z,102396.33
2018-09-27T05:00:06.789Z,102392.75
2018-09-27T05:02:34.935Z,102393.16
2018-09-27T05:05:03.197Z,102393.13
2018-09-27T05:07:31.402Z,102391.11
2018-09-27T05:09:59.637Z,102390.88
2018-09-27T05:12:27.881Z,102393.95
2018-09-27T05:14:56.102Z,102395.27
2018-09-27T05:17:24.382Z,102388.76
2018-09-27T05:19:52.594Z,102385.08
2018-09-27T05:22:20.850Z,102383.66
2018-09-27T05:24:49.102Z,102381.48
2018-09-27T05:27:18.489Z,102382.94
2018-09-27T05:29:46.650Z,102380.52
2018-09-27T05:32:14.980Z,102375.82
2018-09-27T05:34:43.250Z,102373.37
2018-09-27T05:37:11.538Z,102371.05
2018-09-27T05:39:40.886Z,102367.67
2018-09-27T05:42:09.086Z,102371.14
2018-09-27T05:44:37.317Z,102365.24
2018-09-27T05:47:05.669Z,102375.20
2018-09-27T05:49:34.023Z,102363.25
2018-09-27T05:52:02.296Z,102364.89
2018-09-27T05:54:31.707Z,102360.39
2018-09-27T05:56:59.965Z,102355.83
2018-09-27T05:59:28.308Z,102356.60
2018-09-27T06:01:56.660Z,102362.16
2018-09-27T06:04:24.891Z,102355.11
2018-09-27T06:06:53.113Z,102353.17
2018-09-27T06:09:21.372Z,102348.84
2018-09-27T06:11:49.605Z,102352.83
2018-09-27T06:14:17.856Z,102350.75
2018-09-27T06:16:46.127Z,102347.30
2018-09-27T06:19:14.535Z,102349.08
2018-09-27T06:21:43.047Z,102348.35
2018-09-27T06:24:11.316Z,102357.71
2018-09-27T06:26:39.596Z,102349.90
2018-09-27T06:29:08.083Z,102357.75
2018-09-27T06:31:36.326Z,102352.05
2018-09-27T06:34:04.573Z,102351.95
2018-09-27T06:36:32.835Z,102355.06
2018-09-27T06:39:01.110Z,102354.89
2018-09-27T06:41:29.415Z,102356.37
2018-09-27T06:43:57.623Z,102341.93
2018-09-27T06:46:25.908Z,102339.27
2018-09-27T06:48:54.332Z,102335.61
2018-09-27T06:51:22.451Z,102341.46
2018-09-27T06:53:50.710Z,102346.45
2018-09-27T06:56:18.944Z,102340.67
2018-09-27T06:58:47.215Z,102348.23
2018-09-27T07:01:15.437Z,102343.52
2018-09-27T07:03:43.685Z,102347.05
2018-09-27T07:06:11.919Z,102346.58
2018-09-27T07:08:40.253Z,102346.78
2018-09-27T07:11:08.838Z,102339.51
2018-09-27T07:13:37.506Z,102338.84
2018-09-27T07:16:05.744Z,102337.53
2018-09-27T07:18:34.995Z,102333.35
2018-09-27T07:21:03.224Z,102329.93
2018-09-27T07:23:31.471Z,102333.30
2018-09-27T07:25:59.739Z,102331.59
2018-09-27T07:28:27.974Z,102325.11
2018-09-27T07:30:56.218Z,102332.61
2018-09-27T07:33:24.468Z,102328.78
2018-09-27T07:35:52.706Z,102335.07
2018-09-27T07:38:20.944Z,102323.31
2018-09-27T07:40:49.258Z,102314.16
2018-09-27T07:43:17.574Z,102312.96
2018-09-27T07:45:45.793Z,102314.48
2018-09-27T07:48:14.048Z,102314.78
2018-09-27T07:50:42.324Z,102318.61
2018-09-27T07:53:10.465Z,102319.36
2018-09-27T07:55:38.686Z,102316.66
2018-09-27T07:58:07.341Z,102307.33
2018-09-27T08:00:36.686Z,102306.88
2018-09-27T08:03:04.972Z,102302.71
2018-09-27T08:05:33.154Z,102291.42
2018-09-27T08:08:01.388Z,102296.70
2018-09-27T08:10:29.674Z,102285.58
2018-09-27T08:12:57.893Z,102294.33
2018-09-27T08:15:26.138Z,102289.88
2018-09-27T08:17:54.427Z,102285.91
2018-09-27T08:20:22.712Z,102286.77
2018-09-27T08:22:50.918Z,102286.06
2018-09-27T08:25:21.272Z,102280.82
2018-09-27T08:27:49.557Z,102273.91
2018-09-27T08:30:17.811Z,102275.08
2018-09-27T08:32:46.114Z,102273.39
2018-09-27T08:35:14.418Z,102271.63
2018-09-27T08:37:42.703Z,102275.36
2018-09-27T08:40:11.031Z,102277.32
2018-09-27T08:42:39.417Z,102265.10
2018-09-27T08:45:08.234Z,102258.89
2018-09-27T08:47:37.465Z,102261.74
2018-09-27T08:50:05.822Z,102252.41
2018-09-27T08:52:34.150Z,102248.50
2018-09-27T08:55:02.411Z,102247.17
2018-09-27T08:57:30.761Z,102240.07
2018-09-27T08:59:58.979Z,102239.69
2018-09-27T09:02:27.285Z,102240.09
2018-09-27T09:04:55.639Z,102239.30
2018-09-27T09:07:23.941Z,102238.33
2018-09-27T09:09:52.191Z,102240.09
2018-09-27T09:12:21.066Z,102234.05
2018-09-27T09:14:49.342Z,102232.27
2018-09-27T09:17:17.642Z,102227.94
2018-09-27T09:19:45.847Z,102229.16
2018-09-27T09:22:14.083Z,102222.18
2018-09-27T09:24:42.419Z,102215.19
2018-09-27T09:27:10.808Z,102209.44
2018-09-27T09:29:39.171Z,102209.47
2018-09-27T09:32:07.306Z,102202.75
2018-09-27T09:34:35.604Z,102204.96
2018-09-27T09:37:03.955Z,102203.80
2018-09-27T09:39:32.186Z,102198.14
2018-09-27T09:42:00.422Z,102192.81
2018-09-27T09:44:28.666Z,102190.00
2018-09-27T09:46:56.934Z,102182.30
2018-09-27T09:49:25.300Z,102172.41
2018-09-27T09:51:53.506Z,102166.54
2018-09-27T09:54:21.795Z,102158.05
2018-09-27T09:56:50.198Z,102166.22
2018-09-27T09:59:18.437Z,102152.28
2018-09-27T10:01:46.698Z,102153.28
2018-09-27T10:04:14.931Z,102152.59
2018-09-27T10:06:43.410Z,102145.41
2018-09-27T10:09:12.077Z,102141.79
2018-09-27T10:11:40.396Z,102144.34
2018-09-27T10:14:08.774Z,102147.22
2018-09-27T10:16:37.366Z,102147.58
2018-09-27T10:19:05.598Z,102139.41
2018-09-27T10:21:33.846Z,102143.13
2018-09-27T10:24:02.094Z,102148.50
2018-09-27T10:26:31.441Z,102150.34
2018-09-27T10:28:59.651Z,102137.81
2018-09-27T10:31:27.974Z,102126.20
2018-09-27T10:33:56.241Z,102132.47
2018-09-27T10:36:24.503Z,102125.16
2018-09-27T10:38:52.743Z,102120.50
2018-09-27T10:41:21.030Z,102120.02
2018-09-27T10:43:49.469Z,102107.15
2018-09-27T10:46:17.841Z,102108.95
2018-09-27T10:48:46.087Z,102116.36
2018-09-27T10:51:14.433Z,102114.34
2018-09-27T10:53:42.767Z,102101.55
2018-09-27T10:56:12.086Z,102097.45
2018-09-27T10:58:40.371Z,102098.54
2018-09-27T11:01:08.662Z,102096.45
2018-09-27T11:03:36.885Z,102094.59
2018-09-27T11:06:05.156Z,102085.89
2018-09-27T11:08:33.442Z,102081.07
2018-09-27T11:11:02.792Z,102077.81
2018-09-27T11:13:30.989Z,102077.05
2018-09-27T11:15:59.233Z,102074.16
2018-09-27T11:18:27.450Z,102071.24
2018-09-27T11:20:55.666Z,102064.95
2018-09-27T11:23:23.928Z,102061.38
2018-09-27T11:25:52.174Z,102049.22
2018-09-27T11:28:20.466Z,102045.33
2018-09-27T11:30:54.153Z,102042.69
2018-09-27T11:33:22.498Z,102036.34
2018-09-27T11:35:50.758Z,102028.63
2018-09-27T11:38:19.026Z,102017.17
2018-09-27T11:40:47.339Z,102019.95
2018-09-27T11:43:15.641Z,102003.23
2018-09-27T11:45:43.895Z,101993.33
2018-09-27T11:48:12.113Z,101980.62
2018-09-27T11:50:40.356Z,101979.03
2018-09-27T11:53:08.579Z,101986.08
2018-09-27T11:55:36.894Z,101976.03
2018-09-27T11:58:05.150Z,101976.34
2018-09-27T12:00:33.445Z,101957.87
2018-09-27T12:03:01.651Z,101960.53
2018-09-27T12:05:29.935Z,101950.94
2018-09-27T12:07:58.178Z,101949.64
2018-09-27T12:10:26.394Z,101948.74
2018-09-27T12:12:54.770Z,101943.02
2018-09-27T12:15:22.978Z,101939.39
2018-09-27T12:17:52.306Z,101937.52
2018-09-27T12:20:20.538Z,101931.33
2018-09-27T12:22:48.939Z,101919.52
2018-09-27T12:25:18.186Z,101917.76
2018-09-27T12:27:46.410Z,101919.75
2018-09-27T12:30:15.722Z,101912.57
2018-09-27T12:32:43.951Z,101905.05
2018-09-27T12:35:12.190Z,101903.48
2018-09-27T12:37:40.429Z,101889.69
2018-09-27T12:40:08.755Z,101886.97
2018-09-27T12:42:37.220Z,101883.96
2018-09-27T12:45:05.462Z,101874.47
2018-09-27T12:47:33.618Z,101875.82
2018-09-27T12:50:01.876Z,101872.41
2018-09-27T12:52:30.199Z,101859.81
2018-09-27T12:54:58.330Z,101859.96
2018-09-27T12:57:26.595Z,101857.26
2018-09-27T12:59:54.814Z,101849.34
2018-09-27T13:02:23.079Z,101839.20
2018-09-27T13:04:51.338Z,101832.75
2018-09-27T13:07:19.593Z,101825.40
2018-09-27T13:09:47.882Z,101826.13
2018-09-27T13:12:16.113Z,101815.02
2018-09-27T13:14:44.278Z,101819.80
2018-09-27T13:17:12.564Z,101810.72
2018-09-27T13:19:40.836Z,101798.67
2018-09-27T13:22:08.983Z,101800.39
2018-09-27T13:24:37.214Z,101794.77
2018-09-27T13:27:05.750Z,101790.80
2018-09-27T13:29:33.930Z,101785.89
2018-09-27T13:32:02.187Z,101776.37
2018-09-27T13:34:30.369Z,101778.81
2018-09-27T13:36:58.654Z,101773.27
2018-09-27T13:39:26.874Z,101764.10
2018-09-27T13:41:55.146Z,101762.72
2018-09-27T13:44:23.418Z,101753.84
2018-09-27T13:46:51.761Z,101738.42
2018-09-27T13:49:20.042Z,101733.48
2018-09-27T13:51:48.554Z,101727.64
2018-09-27T13:54:17.005Z,101726.77
2018-09-27T13:56:45.492Z,101724.69
2018-09-27T13:59:13.861Z,101716.10
2018-09-27T14:01:43.203Z,101709.57
2018-09-27T14:04:11.475Z,101711.00
2018-09-27T14:06:39.707Z,101693.53
2018-09-27T14:09:08.916Z,101694.59
2018-09-27T14:11:38.374Z,101691.55
2018-09-27T14:14:06.766Z,101683.59
2018-09-27T14:16:35.409Z,101680.52
2018-09-27T14:19:03.735Z,101680.48
2018-09-27T14:21:32.075Z,101674.07
2018-09-27T14:24:00.282Z,101668.39
2018-09-27T14:26:28.510Z,101666.16
2018-09-27T14:28:56.740Z,101662.95
2018-09-27T14:31:24.998Z,101655.75
2018-09-27T14:33:54.361Z,101646.50
2018-09-27T14:36:22.586Z,101637.66
2018-09-27T14:38:50.793Z,101643.39
2018-09-27T14:41:19.014Z,101637.29
2018-09-27T14:43:47.233Z,101637.03
2018-09-27T14:46:15.466Z,101631.84
2018-09-27T14:48:43.689Z,101630.64
2018-09-27T14:51:11.938Z,101630.83
2018-09-27T14:53:40.200Z,101630.86
2018-09-27T14:56:08.531Z,101624.45
2018-09-27T14:58:36.860Z,101618.80
2018-09-27T15:01:05.098Z,101626.11
2018-09-27T15:03:33.319Z,101623.91
2018-09-27T15:06:02.594Z,101617.73
2018-09-27T15:08:30.810Z,101616.55
2018-09-27T15:10:59.063Z,101607.78
2018-09-27T15:13:27.287Z,101605.72
2018-09-27T15:15:55.526Z,101607.24
2018-09-27T15:18:23.811Z,101605.17
2018-09-27T15:20:52.106Z,101599.96
2018-09-27T15:23:20.395Z,101597.75
2018-09-27T15:25:48.622Z,101601.02
2018-09-27T15:28:16.869Z,101589.94
2018-09-27T15:30:45.140Z,101591.03
2018-09-27T15:33:13.397Z,101589.05
2018-09-27T15:35:41.671Z,101582.27
2018-09-27T15:38:09.880Z,101582.80
2018-09-27T15:40:38.142Z,101577.14
2018-09-27T15:43:06.466Z,101576.41
2018-09-27T15:45:34.681Z,101569.13
2018-09-27T15:48:03.058Z,101568.72
2018-09-27T15:50:31.265Z,101564.55
2018-09-27T15:52:59.487Z,101561.42
2018-09-27T15:55:27.726Z,101558.82
2018-09-27T15:57:56.119Z,101550.67
2018-09-27T16:00:24.422Z,101549.34
2018-09-27T16:02:52.724Z,101552.00
2018-09-27T16:05:21.025Z,101544.17
2018-09-27T16:07:49.327Z,101547.42
2018-09-27T16:10:17.561Z,101547.56
2018-09-27T16:12:45.890Z,101541.38
2018-09-27T16:15:14.106Z,101549.38
2018-09-27T16:17:42.432Z,101542.37
2018-09-27T16:20:10.646Z,101546.34
2018-09-27T16:22:38.959Z,101547.84
2018-09-27T16:25:07.470Z,101544.25
2018-09-27T16:27:36.079Z,101535.14
2018-09-27T16:30:04.329Z,101541.52
2018-09-27T16:32:32.541Z,101537.23
2018-09-27T16:35:00.778Z,101532.55
2018-09-27T16:37:28.990Z,101532.92
2018-09-27T16:39:57.260Z,101526.52
2018-09-27T16:42:25.566Z,101531.11
2018-09-27T16:44:53.788Z,101531.02
2018-09-27T16:47:21.997Z,101529.23
2018-09-27T16:49:50.332Z,101530.93
2018-09-27T16:52:18.849Z,101526.53
2018-09-27T16:54:47.255Z,101525.22
2018-09-27T16:57:15.466Z,101531.13
2018-09-27T16:59:43.731Z,101527.63
2018-09-27T17:02:11.910Z,101529.74
2018-09-27T17:04:40.132Z,101529.29
2018-09-27T17:07:08.366Z,101523.55
2018-09-27T17:09:36.591Z,101530.12
2018-09-27T17:12:04.804Z,101526.05
2018-09-27T17:14:33.062Z,101524.65
2018-09-27T17:17:01.259Z,101527.17
2018-09-27T17:19:29.479Z,101527.13
2018-09-27T17:21:57.726Z,101525.72
2018-09-27T17:24:26.057Z,101524.55
2018-09-27T17:26:54.289Z,101531.46
2018-09-27T17:29:22.528Z,101527.11
2018-09-27T17:31:50.742Z,101529.69
2018-09-27T17:34:18.952Z,101528.37
2018-09-27T17:36:47.194Z,101531.91
2018-09-27T17:39:15.414Z,101525.27
2018-09-27T17:41:43.630Z,101522.93
2018-09-27T17:44:11.873Z,101534.22
2018-09-27T17:46:40.117Z,101530.69
2018-09-27T17:49:08.354Z,101535.48
2018-09-27T17:51:36.570Z,101536.20
2018-09-27T17:54:04.813Z,101548.72
2018-09-27T17:56:33.099Z,101550.55
2018-09-27T17:59:01.382Z,101551.91
2018-09-27T18:01:29.641Z,101562.67
2018-09-27T18:03:57.809Z,101557.53
2018-09-27T18:06:26.041Z,101565.50
2018-09-27T18:08:54.358Z,101562.30
2018-09-27T18:11:22.594Z,101562.54
2018-09-27T18:13:50.831Z,101569.13
2018-09-27T18:16:19.046Z,101564.66
2018-09-27T18:18:47.276Z,101564.25
2018-09-27T18:21:15.553Z,101566.05
2018-09-27T18:23:43.897Z,101566.64
2018-09-27T18:26:12.129Z,101572.50
2018-09-27T18:28:40.417Z,101568.05
2018-09-27T18:31:08.804Z,101584.55
2018-09-27T18:33:36.965Z,101577.20
2018-09-27T18:36:05.190Z,101575.39
2018-09-27T18:38:33.422Z,101575.66
2018-09-27T18:41:01.654Z,101579.59
2018-09-27T18:43:29.908Z,101578.16
2018-09-27T18:45:58.121Z,101575.55
2018-09-27T18:48:26.431Z,101577.41
2018-09-27T18:50:54.694Z,101578.49
2018-09-27T18:53:23.030Z,101584.88
2018-09-27T18:55:51.245Z,101579.67
2018-09-27T18:58:19.538Z,101579.50
2018-09-27T19:00:47.756Z,101579.70
2018-09-27T19:03:15.993Z,101575.03
2018-09-27T19:05:44.226Z,101577.88
2018-09-27T19:08:12.501Z,101574.81
2018-09-27T19:10:40.742Z,101578.75
2018-09-27T19:13:09.002Z,101575.66
2018-09-27T19:15:37.469Z,101575.63
2018-09-27T19:18:05.730Z,101574.66
2018-09-27T19:20:33.950Z,101573.27
2018-09-27T19:23:02.189Z,101580.31
2018-09-27T19:25:30.434Z,101571.58
2018-09-27T19:27:58.673Z,101566.02
2018-09-27T19:30:26.898Z,101571.61
2018-09-27T19:32:55.982Z,101571.75
2018-09-27T19:35:24.270Z,101575.98
2018-09-27T19:37:52.489Z,101568.51
2018-09-27T19:40:20.781Z,101571.80
2018-09-27T19:42:49.015Z,101573.98
2018-09-27T19:45:17.242Z,101570.64
2018-09-27T19:47:45.457Z,101568.65
2018-09-27T19:50:13.687Z,101567.94
2018-09-27T19:52:41.913Z,101570.92
2018-09-27T19:55:10.155Z,101564.45
2018-09-27T19:57:38.374Z,101571.09
2018-09-27T20:00:06.859Z,101572.92
2018-09-27T20:02:35.157Z,101573.59
2018-09-27T20:05:03.416Z,101570.61
2018-09-27T20:07:31.634Z,101569.34
2018-09-27T20:09:59.890Z,101568.64
2018-09-27T20:12:28.707Z,101565.33
2018-09-27T20:14:56.938Z,101570.65
2018-09-27T20:17:25.158Z,101570.80
2018-09-27T20:19:53.446Z,101570.02
2018-09-27T20:22:21.705Z,101569.25
2018-09-27T20:24:49.915Z,101574.39
2018-09-27T20:27:18.137Z,101574.83
2018-09-27T20:29:46.368Z,101574.95
2018-09-27T20:32:14.594Z,101579.66
2018-09-27T20:34:42.860Z,101574.39
2018-09-27T20:37:11.917Z,101580.92
2018-09-27T20:39:40.142Z,101570.47
2018-09-27T20:42:08.375Z,101574.11
2018-09-27T20:44:36.583Z,101579.91
2018-09-27T20:47:04.812Z,101579.52
2018-09-27T20:49:33.074Z,101579.09
2018-09-27T20:52:01.350Z,101580.09
2018-09-27T20:54:29.615Z,101584.33
2018-09-27T20:56:57.907Z,101584.00
2018-09-27T20:59:26.130Z,101584.99
2018-09-27T21:01:54.548Z,101580.55
2018-09-27T21:04:22.802Z,101579.78
2018-09-27T21:06:51.067Z,101578.49
2018-09-27T21:09:22.866Z,101576.77
2018-09-27T21:11:51.159Z,101572.84
2018-09-27T21:14:19.505Z,101575.55
2018-09-27T21:16:47.883Z,101572.02
2018-09-27T21:19:18.154Z,101569.74
2018-09-27T21:21:46.394Z,101572.11
2018-09-27T21:24:14.585Z,101571.22
2018-09-27T21:26:42.786Z,101569.06
2018-09-27T21:29:10.971Z,101576.95
2018-09-27T21:31:39.326Z,101571.73
2018-09-27T21:34:07.518Z,101576.09
2018-09-27T21:36:35.739Z,101572.23
2018-09-27T21:39:04.965Z,101577.91
2018-09-27T21:41:33.171Z,101581.00
2018-09-27T21:44:01.365Z,101575.27
2018-09-27T21:46:29.560Z,101584.06
2018-09-27T21:48:57.759Z,101580.15
2018-09-27T21:51:25.958Z,101582.25
2018-09-27T21:53:54.178Z,101582.24
2018-09-27T21:56:22.378Z,101584.16
2018-09-27T21:58:50.634Z,101576.23
2018-09-27T22:01:19.167Z,101572.77
2018-09-27T22:03:47.366Z,101567.56
2018-09-27T22:06:15.578Z,101572.38
2018-09-27T22:08:43.860Z,101565.00
2018-09-27T22:11:12.094Z,101572.77
2018-09-27T22:13:40.320Z,101574.57
2018-09-27T22:16:08.514Z,101572.82
2018-09-27T22:18:37.170Z,101583.67
2018-09-27T22:21:05.454Z,101583.27
2018-09-27T22:23:33.812Z,101578.94
2018-09-27T22:26:02.024Z,101586.80
2018-09-27T22:28:30.287Z,101579.37
2018-09-27T22:30:58.516Z,101580.28
2018-09-27T22:33:26.726Z,101578.09
2018-09-27T22:35:54.969Z,101576.79
2018-09-27T22:38:23.173Z,101575.48
2018-09-27T22:40:51.539Z,101579.83
2018-09-27T22:43:19.834Z,101576.36
2018-09-27T22:45:48.022Z,101578.95
2018-09-27T22:48:16.408Z,101574.59
2018-09-27T22:50:44.625Z,101575.05
2018-09-27T22:53:12.896Z,101581.55
2018-09-27T22:55:41.108Z,101572.86
2018-09-27T22:58:09.383Z,101576.33
2018-09-27T23:00:37.663Z,101572.00
2018-09-27T23:03:05.859Z,101569.39
2018-09-27T23:05:34.073Z,101567.62
2018-09-27T23:08:02.281Z,101576.73
2018-09-27T23:10:30.470Z,101571.09
2018-09-27T23:12:58.697Z,101568.05
2018-09-27T23:15:26.906Z,101568.07
2018-09-27T23:17:55.104Z,101558.91
2018-09-27T23:20:23.318Z,101571.52
2018-09-27T23:22:51.529Z,101565.89
2018-09-27T23:25:19.710Z,101565.00
2018-09-27T23:27:47.911Z,101576.26
2018-09-27T23:30:16.117Z,101574.52
2018-09-27T23:32:44.321Z,101567.59
2018-09-27T23:35:12.551Z,101572.37
2018-09-27T23:37:40.779Z,101570.22
2018-09-27T23:40:08.994Z,101567.16
2018-09-27T23:42:37.238Z,101571.96
2018-09-27T23:45:05.578Z,101568.91
2018-09-27T23:47:33.817Z,101573.66
2018-09-27T23:50:02.044Z,101565.41
2018-09-27T23:52:30.292Z,101567.58
2018-09-27T23:54:58.523Z,101570.60
2018-09-27T23:57:26.758Z,101563.17
2018-09-27T23:59:55.014Z,101563.22
